Time;durP1;ratioP1;P1;durP2;ratioP2;P2;SDS_P1;SDS_P2;PMS_P1;PMS_P2;Temp;Humidity;BMP_temperature;BMP_pressure;BME280_temperature;BME280_humidity;BME280_pressure;Samples;Min_cycle;Max_cycle;Signal;HPM_P1;HPM_P2
2022/03/16 00:01:50;;;;;;;27.70;19.30;;;6.00;99.90;;;;;;5046878;28;20486;-72
2022/03/16 00:04:35;;;;;;;22.27;17.43;;;6.00;99.90;;;;;;5049526;28;20801;-72
2022/03/16 00:07:22;;;;;;;23.87;16.87;;;5.90;99.90;;;;;;5050218;28;21100;-72
2022/03/16 00:10:09;;;;;;;22.93;16.80;;;5.90;99.90;;;;;;5043879;28;20451;-71
2022/03/16 00:12:56;;;;;;;23.90;17.63;;;6.00;99.90;;;;;;5049991;28;20446;-72
2022/03/16 00:15:42;;;;;;;26.80;18.90;;;6.00;99.90;;;;;;5050559;28;20439;-72
2022/03/16 00:18:28;;;;;;;21.80;16.40;;;6.10;99.90;;;;;;5041536;28;20506;-72
2022/03/16 00:21:14;;;;;;;23.97;17.77;;;6.20;99.90;;;;;;5051035;28;21605;-72
2022/03/16 00:24:01;;;;;;;25.37;18.90;;;6.20;99.90;;;;;;5049337;28;20458;-72
2022/03/16 00:26:47;;;;;;;24.53;18.40;;;6.30;99.90;;;;;;5052301;28;20458;-72
2022/03/16 00:29:34;;;;;;;21.17;17.37;;;6.40;99.90;;;;;;5047140;28;20530;-72
2022/03/16 00:32:19;;;;;;;25.63;18.43;;;6.40;99.90;;;;;;5047889;28;20478;-71
2022/03/16 00:35:06;;;;;;;24.03;18.43;;;6.30;99.90;;;;;;5048954;28;20563;-72
2022/03/16 00:37:52;;;;;;;24.23;18.27;;;6.30;99.90;;;;;;5050957;28;20498;-72
2022/03/16 00:40:38;;;;;;;24.63;17.87;;;6.20;99.90;;;;;;5051330;28;20443;-72
2022/03/16 00:43:23;;;;;;;25.87;18.80;;;6.20;99.90;;;;;;5050466;28;20531;-72
2022/03/16 00:46:10;;;;;;;27.03;18.73;;;6.20;99.90;;;;;;5054478;28;20470;-71
2022/03/16 00:48:56;;;;;;;26.23;19.27;;;6.20;99.90;;;;;;5046686;28;20429;-71
2022/03/16 00:51:41;;;;;;;29.00;21.40;;;6.30;99.90;;;;;;5051184;28;20518;-72
2022/03/16 00:54:27;;;;;;;23.30;17.57;;;6.40;99.90;;;;;;5049031;28;20439;-72
2022/03/16 00:57:13;;;;;;;25.60;19.53;;;6.50;99.90;;;;;;5050806;28;20412;-72
2022/03/16 00:59:59;;;;;;;29.73;19.50;;;6.60;99.90;;;;;;5047983;28;20786;-71
2022/03/16 01:02:46;;;;;;;25.80;18.87;;;6.60;99.90;;;;;;5055361;28;20466;-72
2022/03/16 01:05:31;;;;;;;25.87;19.43;;;6.70;99.90;;;;;;5045753;28;20439;-72
2022/03/16 01:08:17;;;;;;;29.10;20.77;;;6.70;99.90;;;;;;5044567;28;20443;-72
2022/03/16 01:11:03;;;;;;;26.50;17.87;;;6.70;99.90;;;;;;5049374;28;20452;-72
2022/03/16 01:13:48;;;;;;;23.90;18.63;;;6.60;99.90;;;;;;5051284;28;20476;-72
2022/03/16 01:16:35;;;;;;;29.77;19.93;;;6.40;99.90;;;;;;5048877;28;21045;-72
2022/03/16 01:19:22;;;;;;;28.33;20.10;;;6.40;99.90;;;;;;5046251;28;20530;-71
2022/03/16 01:22:08;;;;;;;29.37;18.80;;;6.50;99.90;;;;;;5048689;28;20459;-72
2022/03/16 01:24:53;;;;;;;26.50;19.90;;;6.60;99.90;;;;;;5048035;28;20520;-72
2022/03/16 01:27:39;;;;;;;33.43;22.10;;;6.50;99.90;;;;;;5046029;28;20485;-71
2022/03/16 01:30:25;;;;;;;27.30;20.50;;;6.50;99.90;;;;;;5049317;28;20937;-71
2022/03/16 01:33:11;;;;;;;29.47;22.23;;;6.50;99.90;;;;;;5046741;28;20460;-72
2022/03/16 01:35:58;;;;;;;31.97;21.57;;;6.50;99.90;;;;;;5045974;28;20457;-71
2022/03/16 01:38:44;;;;;;;29.63;21.90;;;6.50;99.90;;;;;;5045975;28;20447;-71
2022/03/16 01:41:29;;;;;;;27.30;19.73;;;6.50;99.90;;;;;;5052221;28;20445;-72
2022/03/16 01:44:15;;;;;;;35.40;23.73;;;6.50;99.90;;;;;;5059666;22;20409;-72
2022/03/16 01:47:01;;;;;;;35.80;20.67;;;6.50;99.90;;;;;;5003512;28;22033;-72
2022/03/16 01:49:48;;;;;;;26.10;18.57;;;6.50;99.90;;;;;;5008273;28;20481;-71
2022/03/16 01:52:35;;;;;;;26.70;19.43;;;6.40;99.90;;;;;;5011689;28;20445;-71
2022/03/16 01:55:20;;;;;;;29.77;19.50;;;6.40;99.90;;;;;;5011285;28;20473;-72
2022/03/16 01:58:07;;;;;;;25.60;19.63;;;6.30;99.90;;;;;;5006185;28;20449;-72
2022/03/16 02:00:53;;;;;;;25.17;19.83;;;6.30;99.90;;;;;;5011392;28;20794;-72
2022/03/16 02:03:38;;;;;;;27.00;19.13;;;6.10;99.90;;;;;;5009300;28;20601;-72
2022/03/16 02:06:23;;;;;;;33.33;19.20;;;6.20;99.90;;;;;;5010187;28;20461;-71
2022/03/16 02:09:10;;;;;;;31.70;19.70;;;6.20;99.90;;;;;;5009406;28;20440;-72
2022/03/16 02:11:57;;;;;;;26.20;19.30;;;6.20;99.90;;;;;;5009944;28;20449;-72
2022/03/16 02:14:42;;;;;;;23.50;18.23;;;6.10;99.90;;;;;;5005767;28;20474;-72
2022/03/16 02:17:28;;;;;;;25.20;19.63;;;6.20;99.90;;;;;;5005399;28;20449;-72
2022/03/16 02:20:14;;;;;;;28.03;18.93;;;6.10;99.90;;;;;;5009745;28;20428;-72
2022/03/16 02:23:03;;;;;;;24.47;18.70;;;6.00;99.90;;;;;;5007700;28;20596;-72
2022/03/16 02:25:50;;;;;;;27.47;18.93;;;6.00;99.90;;;;;;5008864;28;20550;-72
2022/03/16 02:28:36;;;;;;;26.30;17.77;;;5.90;99.90;;;;;;5007544;28;20504;-72
2022/03/16 02:31:22;;;;;;;27.47;18.03;;;6.10;99.90;;;;;;5011963;28;20427;-72
2022/03/16 02:34:07;;;;;;;24.30;17.60;;;6.10;99.90;;;;;;5013382;28;20965;-72
2022/03/16 02:36:53;;;;;;;29.03;19.13;;;6.20;99.90;;;;;;5011291;28;20573;-72
2022/03/16 02:39:40;;;;;;;24.30;18.20;;;6.20;99.90;;;;;;5015776;28;20540;-72
2022/03/16 02:42:26;;;;;;;31.70;20.67;;;6.10;99.90;;;;;;5016600;28;20576;-72
2022/03/16 02:45:11;;;;;;;28.03;20.37;;;6.10;99.90;;;;;;5014679;28;20999;-72
2022/03/16 02:47:57;;;;;;;26.83;19.67;;;6.20;99.90;;;;;;5009758;28;20579;-72
2022/03/16 02:50:43;;;;;;;25.73;18.40;;;6.10;99.90;;;;;;5016909;28;20408;-72
2022/03/16 02:53:29;;;;;;;34.23;22.30;;;6.20;99.90;;;;;;5012858;28;20456;-71
2022/03/16 02:56:16;;;;;;;27.47;19.83;;;6.20;99.90;;;;;;5009611;28;21763;-71
2022/03/16 02:59:02;;;;;;;25.10;16.83;;;6.20;99.90;;;;;;5014836;28;20450;-72
2022/03/16 03:01:47;;;;;;;29.47;18.93;;;6.20;99.90;;;;;;5011142;28;20449;-72
2022/03/16 03:04:33;;;;;;;29.83;19.87;;;6.10;99.90;;;;;;5022022;28;20501;-72
2022/03/16 03:07:19;;;;;;;29.73;20.27;;;6.00;99.90;;;;;;5011665;28;20465;-72
2022/03/16 03:10:05;;;;;;;25.80;19.03;;;6.00;99.90;;;;;;5008855;28;20908;-72
2022/03/16 03:12:52;;;;;;;29.07;20.93;;;6.00;99.90;;;;;;5013803;28;20473;-72
2022/03/16 03:15:39;;;;;;;26.93;18.20;;;6.00;99.90;;;;;;5010498;28;20465;-72
2022/03/16 03:18:24;;;;;;;26.40;19.10;;;5.90;99.90;;;;;;5012150;28;20436;-72
2022/03/16 03:21:10;;;;;;;28.87;19.43;;;5.90;99.90;;;;;;5014483;28;20441;-72
2022/03/16 03:23:55;;;;;;;38.80;19.17;;;5.90;99.90;;;;;;5014699;28;21075;-72
2022/03/16 03:26:41;;;;;;;30.10;18.83;;;5.90;99.90;;;;;;5007842;28;20469;-72
2022/03/16 03:29:28;;;;;;;25.73;18.37;;;5.90;99.90;;;;;;5014352;28;20442;-72
2022/03/16 03:32:14;;;;;;;24.33;17.03;;;5.80;99.90;;;;;;5012864;28;20445;-72
2022/03/16 03:35:00;;;;;;;22.30;15.87;;;5.70;99.90;;;;;;5014759;28;20479;-72
2022/03/16 03:37:46;;;;;;;21.00;15.50;;;5.70;99.90;;;;;;5010428;28;20485;-72
2022/03/16 03:40:31;;;;;;;23.10;17.43;;;5.50;99.90;;;;;;5011220;28;20454;-72
2022/03/16 03:43:17;;;;;;;23.47;18.50;;;5.60;99.90;;;;;;5010725;28;20439;-72
2022/03/16 03:46:04;;;;;;;20.30;16.27;;;5.50;99.90;;;;;;5006995;28;20481;-72
2022/03/16 03:48:49;;;;;;;22.63;17.63;;;5.60;99.90;;;;;;5011570;28;20556;-71
2022/03/16 03:51:35;;;;;;;21.97;16.73;;;5.50;99.90;;;;;;5017505;28;20425;-71
2022/03/16 03:54:21;;;;;;;21.80;16.50;;;5.50;99.90;;;;;;5011482;28;20514;-72
2022/03/16 03:57:06;;;;;;;23.70;17.37;;;5.20;99.90;;;;;;5007465;28;20528;-72
2022/03/16 03:59:52;;;;;;;22.83;16.87;;;5.20;99.90;;;;;;5008291;28;20449;-72
2022/03/16 04:02:39;;;;;;;22.73;17.70;;;5.10;99.90;;;;;;5011436;28;20836;-72
2022/03/16 04:05:25;;;;;;;18.90;15.27;;;5.20;99.90;;;;;;5005108;28;20466;-71
2022/03/16 04:08:10;;;;;;;21.13;16.40;;;5.20;99.90;;;;;;5011039;28;20481;-71
2022/03/16 04:10:56;;;;;;;25.27;18.07;;;5.20;99.90;;;;;;5011430;28;20445;-71
2022/03/16 04:13:41;;;;;;;23.50;16.50;;;5.20;99.90;;;;;;5010441;28;20462;-72
2022/03/16 04:16:27;;;;;;;26.70;17.10;;;5.10;99.90;;;;;;5010392;28;20962;-71
2022/03/16 04:19:14;;;;;;;25.30;17.90;;;5.00;99.90;;;;;;5012924;28;21168;-72
2022/03/16 04:22:00;;;;;;;25.73;17.17;;;5.00;99.90;;;;;;5011108;28;20221;-72
2022/03/16 04:24:46;;;;;;;24.90;17.03;;;4.90;99.90;;;;;;5008410;28;20469;-72
2022/03/16 04:27:31;;;;;;;23.07;17.90;;;5.00;99.90;;;;;;5005228;28;20998;-72
2022/03/16 04:30:17;;;;;;;25.83;17.47;;;5.00;99.90;;;;;;5013619;28;20468;-71
2022/03/16 04:33:03;;;;;;;20.77;15.53;;;5.00;99.90;;;;;;5011162;28;20953;-71
2022/03/16 04:35:50;;;;;;;23.67;16.70;;;5.00;99.90;;;;;;5005732;28;20477;-72
2022/03/16 04:38:36;;;;;;;21.30;15.37;;;4.80;99.90;;;;;;5013506;28;20425;-72
2022/03/16 04:41:21;;;;;;;25.80;18.00;;;4.80;99.90;;;;;;5008507;28;20544;-71
2022/03/16 04:44:07;;;;;;;27.20;18.27;;;4.70;99.90;;;;;;5013589;28;20414;-71
2022/03/16 04:46:52;;;;;;;19.37;14.60;;;4.70;99.90;;;;;;5009852;28;20411;-72
2022/03/16 04:49:38;;;;;;;25.83;17.33;;;4.70;99.90;;;;;;5005054;28;20454;-71
2022/03/16 04:52:25;;;;;;;20.90;16.17;;;4.70;99.90;;;;;;5014294;28;20442;-72
2022/03/16 04:55:12;;;;;;;22.27;16.47;;;4.70;99.90;;;;;;5009794;28;21087;-72
2022/03/16 04:57:58;;;;;;;22.10;14.80;;;4.70;99.90;;;;;;5009599;28;20433;-72
2022/03/16 05:00:43;;;;;;;23.97;16.47;;;4.80;99.90;;;;;;5010217;28;20453;-72
2022/03/16 05:03:29;;;;;;;23.20;16.60;;;4.60;99.90;;;;;;5008988;28;20440;-72
2022/03/16 05:06:14;;;;;;;25.33;16.90;;;4.70;99.90;;;;;;5011789;28;20616;-71
2022/03/16 05:09:02;;;;;;;30.08;17.00;;;4.80;99.90;;;;;;5012587;28;20210;-73
2022/03/16 05:11:47;;;;;;;24.10;16.70;;;4.80;99.90;;;;;;5015875;28;20205;-71
2022/03/16 05:14:33;;;;;;;22.53;15.60;;;4.80;99.90;;;;;;5009220;28;20308;-71
2022/03/16 05:17:19;;;;;;;27.40;16.90;;;4.70;99.90;;;;;;5012548;28;20536;-71
2022/03/16 05:20:05;;;;;;;25.10;17.10;;;4.80;99.90;;;;;;5010558;28;20439;-71
2022/03/16 05:22:52;;;;;;;26.07;16.13;;;4.90;99.90;;;;;;5009081;28;20202;-72
2022/03/16 05:25:40;;;;;;;23.90;17.13;;;4.90;99.90;;;;;;5009748;28;20513;-71
2022/03/16 05:28:25;;;;;;;22.10;15.80;;;4.90;99.90;;;;;;5011861;28;20461;-71
2022/03/16 05:31:10;;;;;;;25.33;16.90;;;4.90;99.90;;;;;;5010691;28;20441;-71
2022/03/16 05:33:56;;;;;;;23.33;16.23;;;5.00;99.90;;;;;;5014119;28;20641;-71
2022/03/16 05:36:42;;;;;;;22.65;16.70;;;5.00;99.90;;;;;;5012341;28;20552;-71
2022/03/16 05:39:27;;;;;;;28.37;17.03;;;5.10;99.90;;;;;;5011156;28;20302;-70
2022/03/16 05:42:14;;;;;;;24.10;15.57;;;5.10;99.90;;;;;;5009842;28;20492;-71
2022/03/16 05:45:00;;;;;;;24.77;16.40;;;5.10;99.90;;;;;;5012569;28;21013;-69
2022/03/16 05:47:45;;;;;;;22.60;15.20;;;5.10;99.90;;;;;;5009340;28;20461;-71
2022/03/16 05:50:31;;;;;;;27.90;15.05;;;5.00;99.90;;;;;;5018230;28;20429;-71
2022/03/16 05:53:17;;;;;;;22.40;15.47;;;5.10;99.90;;;;;;5006996;28;20202;-71
2022/03/16 05:56:03;;;;;;;21.60;15.50;;;5.00;99.90;;;;;;5006747;28;20472;-71
2022/03/16 05:58:50;;;;;;;20.55;14.20;;;5.10;99.90;;;;;;5014800;28;20946;-71
2022/03/16 06:01:36;;;;;;;23.93;14.83;;;5.00;99.90;;;;;;5004264;28;20213;-71
2022/03/16 06:04:21;;;;;;;23.37;14.90;;;5.00;99.90;;;;;;5003445;28;20627;-71
2022/03/16 06:07:08;;;;;;;20.70;14.33;;;5.00;99.90;;;;;;5006552;28;20450;-72
2022/03/16 06:09:54;;;;;;;23.20;13.73;;;5.00;99.90;;;;;;5014386;28;20516;-70
2022/03/16 06:12:51;;;;;;;20.27;14.27;;;5.00;99.90;;;;;;5010865;28;20613;-72
2022/03/16 06:15:43;;;;;;;20.90;13.10;;;5.00;99.90;;;;;;5012487;28;20346;-72
2022/03/16 06:18:28;;;;;;;21.97;15.03;;;4.90;99.90;;;;;;5011309;28;20804;-72
2022/03/16 06:21:14;;;;;;;20.40;14.30;;;5.00;99.90;;;;;;5010719;28;20542;-71
2022/03/16 06:24:00;;;;;;;21.37;14.80;;;5.00;99.90;;;;;;5009501;28;20584;-72
2022/03/16 06:26:46;;;;;;;24.40;14.33;;;5.10;99.90;;;;;;5007217;28;20529;-72
2022/03/16 06:29:32;;;;;;;25.90;14.70;;;5.20;99.90;;;;;;5007696;28;20465;-70
2022/03/16 06:32:19;;;;;;;20.60;15.50;;;5.30;99.90;;;;;;5007536;28;20449;-71
2022/03/16 06:35:05;;;;;;;22.97;14.87;;;5.40;99.90;;;;;;5006845;28;20573;-70
2022/03/16 06:37:51;;;;;;;25.00;15.43;;;5.30;99.90;;;;;;5008978;28;20439;-71
2022/03/16 06:40:36;;;;;;;24.20;15.63;;;5.40;99.90;;;;;;5011659;28;20522;-70
2022/03/16 06:43:22;;;;;;;22.90;16.70;;;5.50;99.90;;;;;;5005749;28;20528;-71
2022/03/16 06:46:08;;;;;;;21.33;14.77;;;5.50;99.90;;;;;;5006081;28;20559;-71
2022/03/16 06:48:55;;;;;;;23.80;16.47;;;5.60;99.90;;;;;;5007601;28;20469;-72
2022/03/16 06:51:41;;;;;;;19.83;14.60;;;5.70;99.90;;;;;;5009426;28;20588;-71
2022/03/16 06:54:27;;;;;;;23.20;15.77;;;5.80;99.90;;;;;;5006489;28;21093;-70
2022/03/16 06:57:13;;;;;;;24.03;15.70;;;5.90;99.90;;;;;;5011594;28;20449;-71
2022/03/16 06:59:59;;;;;;;25.33;14.90;;;6.00;99.90;;;;;;5010829;28;20412;-71
2022/03/16 07:02:53;;;;;;;24.07;16.43;;;6.00;99.90;;;;;;5007646;28;20449;-70
2022/03/16 07:05:41;;;;;;;19.70;14.57;;;6.20;99.90;;;;;;5004820;28;20838;-70
2022/03/16 07:08:27;;;;;;;24.10;15.80;;;6.30;99.90;;;;;;5009372;28;20485;-71
2022/03/16 07:11:13;;;;;;;20.63;15.17;;;6.30;99.90;;;;;;5002833;28;20440;-70
2022/03/16 07:17:03;;;;;;;20.33;15.33;;;6.50;99.90;;;;;;5009626;28;20538;-71
2022/03/16 07:19:48;;;;;;;22.10;15.97;;;6.60;99.90;;;;;;5013185;28;20419;-71
2022/03/16 07:22:36;;;;;;;26.77;17.53;;;6.70;99.90;;;;;;5008311;28;21003;-71
2022/03/16 07:25:22;;;;;;;23.90;16.47;;;6.80;99.90;;;;;;5017157;28;20454;-71
2022/03/16 07:28:09;;;;;;;24.77;16.57;;;7.00;99.90;;;;;;5018822;28;20468;-70
2022/03/16 07:30:55;;;;;;;21.37;16.37;;;7.20;99.90;;;;;;5002037;28;20433;-70
2022/03/16 07:33:41;;;;;;;22.10;16.87;;;7.30;99.90;;;;;;5003139;28;20441;-70
2022/03/16 07:36:27;;;;;;;19.83;14.63;;;7.50;99.90;;;;;;5012130;28;20424;-71
2022/03/16 07:39:14;;;;;;;20.43;15.30;;;7.60;99.90;;;;;;5003502;28;21036;-71
2022/03/16 07:42:00;;;;;;;18.50;13.90;;;7.70;99.90;;;;;;5012232;28;20458;-70
2022/03/16 07:44:47;;;;;;;20.67;16.33;;;7.80;99.90;;;;;;5025607;22;21141;-83
2022/03/16 07:47:33;;;;;;;21.77;16.00;;;7.90;99.90;;;;;;5040959;28;20988;-84
2022/03/16 07:50:18;;;;;;;22.20;15.03;;;8.00;99.90;;;;;;5037095;28;20441;-84
2022/03/16 07:53:06;;;;;;;21.00;16.33;;;8.10;99.90;;;;;;5034851;28;20966;-84
2022/03/16 07:55:56;;;;;;;24.10;17.50;;;8.20;99.90;;;;;;5032199;28;20442;-85
2022/03/16 07:58:42;;;;;;;19.80;15.23;;;8.20;99.90;;;;;;5029240;28;20437;-85
2022/03/16 08:01:28;;;;;;;18.57;14.63;;;8.40;99.90;;;;;;5031435;28;20920;-84
2022/03/16 08:04:15;;;;;;;21.63;16.07;;;8.40;99.90;;;;;;5027195;28;21179;-85
2022/03/16 08:07:01;;;;;;;19.57;15.30;;;8.50;99.90;;;;;;5041387;28;20483;-84
2022/03/16 08:09:49;;;;;;;22.00;17.20;;;8.50;99.90;;;;;;5040262;28;21221;-85
2022/03/16 08:12:36;;;;;;;22.63;16.10;;;8.60;99.90;;;;;;5034138;28;20939;-84
2022/03/16 08:15:22;;;;;;;20.80;15.20;;;8.60;99.90;;;;;;5026495;28;20413;-84
2022/03/16 08:18:08;;;;;;;22.17;16.23;;;8.70;99.90;;;;;;5040203;28;20440;-85
2022/03/16 08:20:53;;;;;;;19.90;16.07;;;8.70;99.90;;;;;;5033447;28;20429;-84
2022/03/16 08:23:39;;;;;;;21.57;16.53;;;8.80;99.90;;;;;;5026228;28;20435;-84
2022/03/16 08:28:58;;;;;;;23.40;15.97;;;9.00;99.90;;;;;;5035328;28;20992;-70
2022/03/16 08:31:44;;;;;;;22.63;16.13;;;9.10;99.90;;;;;;5029702;28;20394;-71
2022/03/16 08:34:29;;;;;;;22.10;15.70;;;9.10;99.90;;;;;;5028707;28;20493;-71
2022/03/16 08:37:17;;;;;;;22.17;16.17;;;9.10;99.90;;;;;;5027587;28;21225;-71
2022/03/16 08:40:02;;;;;;;20.87;15.53;;;9.20;99.90;;;;;;5022379;28;20415;-71
2022/03/16 08:42:49;;;;;;;20.60;16.80;;;9.30;99.90;;;;;;5027752;28;20474;-71
2022/03/16 08:45:36;;;;;;;20.80;15.00;;;9.40;99.90;;;;;;5032562;28;20953;-71
2022/03/16 08:48:22;;;;;;;18.33;14.00;;;9.50;99.90;;;;;;5028314;28;20393;-71
2022/03/16 08:51:08;;;;;;;16.80;13.20;;;9.60;99.90;;;;;;5029781;28;20439;-70
2022/03/16 08:53:54;;;;;;;15.60;12.73;;;9.60;99.90;;;;;;5025656;28;20503;-71
2022/03/16 08:56:40;;;;;;;17.50;14.47;;;9.70;99.90;;;;;;5029058;28;20406;-70
2022/03/16 08:59:25;;;;;;;17.40;13.60;;;9.80;99.90;;;;;;5027355;28;20399;-71
2022/03/16 09:02:12;;;;;;;17.80;12.77;;;9.90;99.90;;;;;;5026414;28;20404;-71
2022/03/16 09:04:58;;;;;;;15.07;13.10;;;9.90;99.90;;;;;;5032283;28;20425;-71
2022/03/16 09:07:44;;;;;;;16.07;12.73;;;10.10;99.90;;;;;;5025995;28;20450;-70
2022/03/16 09:10:30;;;;;;;16.60;13.00;;;10.20;99.90;;;;;;5033467;28;20457;-70
2022/03/16 09:13:16;;;;;;;16.97;12.93;;;10.30;99.90;;;;;;5026985;28;20415;-71
2022/03/16 09:16:02;;;;;;;13.23;11.33;;;10.40;99.90;;;;;;5031442;28;20505;-70
2022/03/16 09:18:50;;;;;;;14.37;11.40;;;10.50;99.90;;;;;;5019829;28;20556;-70
2022/03/16 09:21:36;;;;;;;15.23;12.60;;;10.60;99.90;;;;;;5017090;28;20467;-70
2022/03/16 09:24:22;;;;;;;13.93;12.07;;;10.70;99.90;;;;;;5019258;28;20577;-71
2022/03/16 09:27:08;;;;;;;13.10;10.90;;;10.90;99.90;;;;;;5022417;28;20805;-70
2022/03/16 09:29:55;;;;;;;12.60;10.10;;;11.10;99.90;;;;;;5026502;28;20508;-71
2022/03/16 09:32:40;;;;;;;11.17;9.30;;;11.20;99.90;;;;;;5019391;28;20597;-70
2022/03/16 09:35:30;;;;;;;11.80;10.00;;;11.30;99.90;;;;;;5023690;28;20580;-70
2022/03/16 09:38:15;;;;;;;11.80;10.20;;;11.40;99.90;;;;;;5021424;28;20460;-71
2022/03/16 09:41:02;;;;;;;11.37;9.67;;;11.50;99.90;;;;;;5020275;28;20434;-71
2022/03/16 09:43:49;;;;;;;11.53;9.27;;;11.50;99.90;;;;;;5023045;28;20798;-70
2022/03/16 09:46:37;;;;;;;11.37;9.57;;;11.40;99.90;;;;;;5020927;28;20442;-71
2022/03/16 09:49:23;;;;;;;11.30;9.67;;;11.40;99.90;;;;;;5028765;28;20973;-71
2022/03/16 09:52:11;;;;;;;11.67;9.80;;;11.40;99.90;;;;;;5021117;28;20943;-71
2022/03/16 09:54:57;;;;;;;10.67;9.00;;;11.40;99.90;;;;;;5023812;28;21012;-70
2022/03/16 09:57:42;;;;;;;12.53;9.90;;;11.50;99.90;;;;;;5022906;28;20493;-70
2022/03/16 10:00:28;;;;;;;11.30;9.80;;;11.60;99.90;;;;;;5020274;28;20447;-71
2022/03/16 10:03:15;;;;;;;11.40;9.20;;;11.80;99.90;;;;;;5019496;28;20496;-71
2022/03/16 10:06:00;;;;;;;11.57;8.67;;;11.90;99.90;;;;;;5022100;28;20462;-71
2022/03/16 10:13:13;;;;;;;11.50;8.93;;;12.10;99.90;;;;;;5022134;28;21025;-71
2022/03/16 10:15:10;;;;;;;12.00;9.47;;;12.50;99.90;;;;;;5021657;28;21016;-71
2022/03/16 10:18:01;;;;;;;10.07;8.43;;;12.70;99.90;;;;;;5026998;28;20526;-71
2022/03/16 10:20:47;;;;;;;10.63;7.83;;;12.90;99.90;;;;;;5020807;28;20444;-71
2022/03/16 10:23:33;;;;;;;10.43;9.00;;;12.90;99.90;;;;;;5023677;28;20420;-71
2022/03/16 10:26:21;;;;;;;10.53;8.73;;;13.00;99.90;;;;;;5021090;28;20558;-68
2022/03/16 10:29:06;;;;;;;10.77;9.27;;;13.00;99.90;;;;;;5022102;28;20464;-68
2022/03/16 10:32:01;;;;;;;10.43;8.67;;;13.20;99.90;;;;;;5021890;28;20452;-68
2022/03/16 10:34:54;;;;;;;8.67;7.63;;;13.30;99.90;;;;;;5024544;28;21116;-68
2022/03/16 10:37:40;;;;;;;10.13;8.37;;;13.30;99.90;;;;;;5019885;28;20424;-68
2022/03/16 10:40:26;;;;;;;10.73;8.10;;;13.40;99.90;;;;;;5021136;28;20986;-68
2022/03/16 10:46:38;;;;;;;9.60;7.87;;;13.70;99.90;;;;;;4978301;28;20857;-68
2022/03/16 10:49:24;;;;;;;10.23;7.87;;;13.90;99.90;;;;;;5027408;28;21212;-68
2022/03/16 10:52:14;;;;;;;8.33;7.50;;;14.20;99.90;;;;;;5021285;28;20420;-68
2022/03/16 10:55:02;;;;;;;10.57;7.70;;;14.40;99.90;;;;;;5017278;28;20482;-68
2022/03/16 10:57:50;;;;;;;8.57;7.67;;;14.50;99.90;;;;;;5021030;28;20600;-68
2022/03/16 11:00:38;;;;;;;9.13;7.67;;;14.50;99.90;;;;;;5023153;28;20411;-69
2022/03/16 11:03:27;;;;;;;8.93;7.57;;;14.70;99.90;;;;;;5026241;28;20427;-71
2022/03/16 11:06:14;;;;;;;8.23;7.20;;;14.80;99.90;;;;;;5022953;28;20622;-71
2022/03/16 11:09:00;;;;;;;9.80;7.67;;;14.90;99.90;;;;;;5026905;28;20493;-71
2022/03/16 11:14:52;;;;;;;11.33;8.40;;;15.20;99.90;;;;;;5026350;28;20440;-71
2022/03/16 11:17:40;;;;;;;9.33;7.93;;;15.20;99.90;;;;;;5024106;28;20510;-71
2022/03/16 11:20:32;;;;;;;9.60;8.33;;;15.20;99.90;;;;;;5019950;28;20541;-71
2022/03/16 11:26:35;;;;;;;9.30;7.87;;;15.30;99.90;;;;;;5025628;28;20911;-71
2022/03/16 11:29:38;;;;;;;10.80;7.53;;;15.30;99.30;;;;;;5023754;28;21123;-71
2022/03/16 11:32:24;;;;;;;9.23;8.20;;;15.20;96.30;;;;;;5016283;28;20511;-71
2022/03/16 11:35:13;;;;;;;9.33;8.03;;;15.20;95.30;;;;;;5025394;28;21014;-71
2022/03/16 11:38:02;;;;;;;9.50;7.43;;;15.20;95.40;;;;;;5023485;28;20431;-71
2022/03/16 11:40:49;;;;;;;8.70;6.77;;;15.40;97.20;;;;;;5019907;28;20428;-71
2022/03/16 11:43:36;;;;;;;9.67;8.37;;;15.50;95.80;;;;;;5021061;28;20444;-71
2022/03/16 11:46:29;;;;;;;9.00;7.60;;;15.60;92.20;;;;;;5017060;28;20526;-71
2022/03/16 11:49:26;;;;;;;7.13;6.40;;;15.70;92.70;;;;;;5024303;28;20436;-71
2022/03/16 11:52:13;;;;;;;8.60;7.37;;;15.60;93.10;;;;;;5018392;28;20437;-71
2022/03/16 11:54:59;;;;;;;8.87;7.00;;;15.50;91.30;;;;;;5022033;28;20544;-71
2022/03/16 11:57:54;;;;;;;9.30;7.30;;;15.60;91.10;;;;;;5023078;28;20516;-71
2022/03/16 12:00:40;;;;;;;9.67;7.80;;;15.70;91.30;;;;;;5019264;28;20604;-71
2022/03/16 12:03:26;;;;;;;10.10;8.40;;;15.80;90.60;;;;;;5017689;28;20442;-72
2022/03/16 12:06:12;;;;;;;8.23;7.43;;;15.90;90.00;;;;;;5021668;28;20474;-71
2022/03/16 12:09:02;;;;;;;7.87;6.53;;;16.10;86.80;;;;;;5020680;28;20547;-71
2022/03/16 12:15:21;;;;;;;7.30;6.60;;;16.10;84.30;;;;;;5024825;28;20465;-71
2022/03/16 12:18:26;;;;;;;7.13;6.43;;;15.90;80.60;;;;;;5025587;28;21042;-71
2022/03/16 12:21:12;;;;;;;7.90;6.83;;;15.70;83.90;;;;;;5018041;28;20836;-71
2022/03/16 12:24:00;;;;;;;7.97;6.50;;;15.50;83.60;;;;;;5017926;28;20537;-71
2022/03/16 12:28:55;;;;;;;8.90;7.37;;;15.40;84.70;;;;;;5019584;28;20531;-71
2022/03/16 12:29:54;;;;;;;7.53;6.50;;;15.20;84.50;;;;;;5022890;28;20463;-71
2022/03/16 12:32:39;;;;;;;8.47;6.90;;;15.10;87.20;;;;;;5019132;28;20424;-71
2022/03/16 12:35:25;;;;;;;8.10;6.60;;;15.10;86.80;;;;;;5029049;28;20467;-71
2022/03/16 12:38:11;;;;;;;6.20;5.40;;;15.20;85.90;;;;;;5025085;28;20428;-71
2022/03/16 12:44:06;;;;;;;8.00;6.20;;;15.50;80.20;;;;;;5023632;28;20881;-71
2022/03/16 12:47:00;;;;;;;8.30;5.27;;;15.70;80.40;;;;;;5029992;28;20460;-71
2022/03/16 12:49:48;;;;;;;7.60;6.50;;;15.90;81.10;;;;;;5025039;28;20494;-71
2022/03/16 12:52:33;;;;;;;7.10;5.90;;;16.10;79.30;;;;;;5030425;28;20449;-71
2022/03/16 12:55:19;;;;;;;7.93;5.83;;;16.10;77.30;;;;;;5026493;28;20452;-71
2022/03/16 12:58:06;;;;;;;7.17;5.50;;;16.00;72.30;;;;;;5029933;28;20449;-71
2022/03/16 13:00:58;;;;;;;6.63;5.70;;;15.90;75.60;;;;;;5020347;28;20579;-71
2022/03/16 13:03:44;;;;;;;8.30;6.47;;;15.80;75.40;;;;;;5022259;28;20481;-71
2022/03/16 13:06:33;;;;;;;7.90;5.97;;;15.70;73.80;;;;;;5026592;28;20543;-71
2022/03/16 13:09:19;;;;;;;6.00;5.00;;;15.60;78.40;;;;;;5021879;28;20420;-71
2022/03/16 13:12:07;;;;;;;6.73;4.97;;;15.50;73.60;;;;;;5021408;28;20476;-71
2022/03/16 13:14:55;;;;;;;8.87;5.23;;;15.40;76.40;;;;;;5022626;28;21060;-71
2022/03/16 13:17:41;;;;;;;6.27;4.93;;;15.30;77.40;;;;;;5021226;28;20427;-71
2022/03/16 13:20:28;;;;;;;6.33;5.40;;;15.30;79.00;;;;;;5021886;28;20425;-71
2022/03/16 13:23:14;;;;;;;7.70;5.80;;;15.30;78.40;;;;;;5023743;28;20627;-71
2022/03/16 13:26:10;;;;;;;10.70;5.70;;;15.20;79.40;;;;;;5019412;28;20469;-71
2022/03/16 13:28:57;;;;;;;8.03;5.77;;;15.20;76.50;;;;;;5023021;28;20977;-71
2022/03/16 13:31:44;;;;;;;7.20;5.60;;;15.10;78.20;;;;;;5023681;28;20447;-71
2022/03/16 13:34:33;;;;;;;7.27;6.03;;;15.10;78.20;;;;;;5023104;28;20803;-71
2022/03/16 13:37:24;;;;;;;9.10;5.60;;;15.00;79.50;;;;;;5022102;28;21094;-71
2022/03/16 13:40:11;;;;;;;8.23;5.07;;;15.00;77.70;;;;;;5021045;28;20479;-71
2022/03/16 13:43:04;;;;;;;7.80;5.50;;;15.00;79.30;;;;;;5026936;28;20905;-71
2022/03/16 13:45:52;;;;;;;10.03;6.57;;;14.90;79.70;;;;;;5020465;28;20473;-72
2022/03/16 13:48:40;;;;;;;10.50;7.10;;;14.80;79.70;;;;;;5024509;28;20419;-71
2022/03/16 13:51:27;;;;;;;6.03;5.23;;;14.80;81.70;;;;;;5027259;28;21014;-72
2022/03/16 13:54:12;;;;;;;11.43;6.70;;;14.70;81.50;;;;;;5028718;28;20396;-72
2022/03/16 13:57:10;;;;;;;6.30;5.00;;;14.70;84.10;;;;;;5031173;28;20765;-72
2022/03/16 13:59:58;;;;;;;7.63;5.30;;;14.70;84.10;;;;;;5033034;28;20889;-72
2022/03/16 14:02:44;;;;;;;12.60;6.53;;;14.70;84.10;;;;;;5027887;28;20527;-72
2022/03/16 14:05:39;;;;;;;10.80;7.37;;;14.70;85.90;;;;;;5034735;28;20586;-72
2022/03/16 14:08:25;;;;;;;11.20;5.50;;;14.70;85.30;;;;;;5020070;28;20444;-72
2022/03/16 14:11:11;;;;;;;8.77;6.70;;;14.60;83.50;;;;;;5033282;28;20890;-72
2022/03/16 14:13:57;;;;;;;12.60;6.20;;;14.60;83.40;;;;;;5020920;28;20417;-72
2022/03/16 14:16:44;;;;;;;9.27;6.93;;;14.60;85.70;;;;;;5032126;28;20754;-72
2022/03/16 14:19:31;;;;;;;7.90;6.47;;;14.50;86.90;;;;;;5022356;28;20552;-72
2022/03/16 14:22:18;;;;;;;8.27;6.87;;;14.50;84.70;;;;;;5019191;28;20464;-72
2022/03/16 14:25:16;;;;;;;9.27;6.43;;;14.40;83.90;;;;;;5019376;28;20922;-72
2022/03/16 14:28:03;;;;;;;8.93;6.80;;;14.40;85.80;;;;;;5018867;28;20440;-72
2022/03/16 14:30:51;;;;;;;9.17;7.63;;;14.30;87.60;;;;;;5027338;28;20546;-72
2022/03/16 14:33:38;;;;;;;8.50;6.23;;;14.30;87.90;;;;;;5029689;28;20910;-72
2022/03/16 14:36:26;;;;;;;9.83;7.30;;;14.30;88.20;;;;;;5034565;28;20490;-71
2022/03/16 14:39:13;;;;;;;7.87;7.07;;;14.30;88.00;;;;;;5036170;28;20444;-72
2022/03/16 14:41:59;;;;;;;9.00;6.77;;;14.30;86.90;;;;;;5037218;28;20514;-72
2022/03/16 14:44:45;;;;;;;10.20;7.50;;;14.30;86.60;;;;;;5017748;28;20977;-72